Tylersburg, Pennsylvania
Current Conditions -  °F | °C
As of 6:53 PM on Monday 24 Nov 2014 (Local Time) from KDUJ Reporting Station
Clear Clear  
Wind Chill: 54°   Ceiling: Unl
Heat Index: 54°   Visibility: 10mi
Dew Point: 43°   Wind: 18mph
Humidity: 66%   Direction: 240°WSW
Pressure: 29.61"   Gusts: NA
Location:  41.38°N, 79.32°W
Report Text: KDUJ 242353Z AUTO 24016KT 10SM CLR 12/06 A2961 RMK AO2 PK WND 24028/2320 SLP024 T01220061 10189 20122 51048
Loading
Personal Weather Stations






























Interactive Weather Map New forecast layout! Learn more

10-Day Weather Forecast

Advertisements
Track Severe Weather on mobile